sensor_id;sensor_type;location;lat;lon;timestamp;pressure;altitude;pressure_sealevel;temperature;humidity
63654;BME280;49809;47.418;19.080;2023-03-04T00:03:04;100612.28;;;-0.82;98.15
63654;BME280;49809;47.418;19.080;2023-03-04T00:07:01;100604.16;;;-0.87;98.31
63654;BME280;49809;47.418;19.080;2023-03-04T00:10:05;100602.44;;;-0.95;98.48
63654;BME280;49809;47.418;19.080;2023-03-04T00:13:38;100602.59;;;-0.96;98.49
63654;BME280;49809;47.418;19.080;2023-03-04T00:17:03;100612.06;;;-1.03;99.03
63654;BME280;49809;47.418;19.080;2023-03-04T00:20:55;100607.88;;;-1.12;99.28
63654;BME280;49809;47.418;19.080;2023-03-04T00:24:31;100603.03;;;-1.23;99.23
63654;BME280;49809;47.418;19.080;2023-03-04T00:28:19;100607.25;;;-1.22;99.83
63654;BME280;49809;47.418;19.080;2023-03-04T00:31:42;100612.12;;;-1.27;100.00
63654;BME280;49809;47.418;19.080;2023-03-04T00:35:25;100606.31;;;-1.38;99.81
63654;BME280;49809;47.418;19.080;2023-03-04T00:39:11;100611.16;;;-1.26;100.00
63654;BME280;49809;47.418;19.080;2023-03-04T00:42:50;100600.66;;;-1.41;100.00
63654;BME280;49809;47.418;19.080;2023-03-04T00:46:49;100610.88;;;-1.48;100.00
63654;BME280;49809;47.418;19.080;2023-03-04T00:50:10;100596.31;;;-1.57;100.00
63654;BME280;49809;47.418;19.080;2023-03-04T00:53:34;100597.91;;;-1.48;100.00
63654;BME280;49809;47.418;19.080;2023-03-04T00:57:15;100597.88;;;-1.40;100.00
63654;BME280;49809;47.418;19.080;2023-03-04T01:00:59;100592.87;;;-1.49;100.00
63654;BME280;49809;47.418;19.080;2023-03-04T01:04:46;100594.03;;;-1.52;100.00
63654;BME280;49809;47.418;19.080;2023-03-04T01:08:24;100586.25;;;-1.60;100.00
63654;BME280;49809;47.418;19.080;2023-03-04T01:11:58;100574.91;;;-1.67;100.00
63654;BME280;49809;47.418;19.080;2023-03-04T01:15:36;100578.47;;;-1.68;100.00
63654;BME280;49809;47.418;19.080;2023-03-04T01:19:12;100572.97;;;-1.81;100.00
63654;BME280;49809;47.418;19.080;2023-03-04T01:22:56;100571.03;;;-1.87;100.00
63654;BME280;49809;47.418;19.080;2023-03-04T01:26:20;100577.19;;;-1.88;100.00
63654;BME280;49809;47.418;19.080;2023-03-04T01:29:56;100572.50;;;-1.93;100.00
63654;BME280;49809;47.418;19.080;2023-03-04T01:37:59;100563.28;;;-2.03;100.00
63654;BME280;49809;47.418;19.080;2023-03-04T01:45:56;100556.16;;;-2.09;100.00
63654;BME280;49809;47.418;19.080;2023-03-04T01:49:38;100551.28;;;-2.12;100.00
63654;BME280;49809;47.418;19.080;2023-03-04T01:53:23;100543.03;;;-2.24;100.00
63654;BME280;49809;47.418;19.080;2023-03-04T01:56:50;100550.62;;;-2.23;100.00
63654;BME280;49809;47.418;19.080;2023-03-04T02:03:54;100547.06;;;-2.30;100.00
63654;BME280;49809;47.418;19.080;2023-03-04T02:07:42;100545.28;;;-2.29;100.00
63654;BME280;49809;47.418;19.080;2023-03-04T02:11:06;100540.25;;;-2.31;100.00
63654;BME280;49809;47.418;19.080;2023-03-04T02:14:26;100544.97;;;-2.42;100.00
63654;BME280;49809;47.418;19.080;2023-03-04T02:18:00;100530.22;;;-2.50;100.00
63654;BME280;49809;47.418;19.080;2023-03-04T02:21:36;100526.66;;;-2.49;100.00
63654;BME280;49809;47.418;19.080;2023-03-04T02:25:17;100527.44;;;-2.56;100.00
63654;BME280;49809;47.418;19.080;2023-03-04T02:28:55;100519.50;;;-2.63;100.00
63654;BME280;49809;47.418;19.080;2023-03-04T02:32:31;100520.81;;;-2.67;100.00
63654;BME280;49809;47.418;19.080;2023-03-04T02:35:48;100508.66;;;-2.67;100.00
63654;BME280;49809;47.418;19.080;2023-03-04T02:39:40;100496.97;;;-2.71;100.00
63654;BME280;49809;47.418;19.080;2023-03-04T02:43:11;100506.22;;;-2.76;100.00
63654;BME280;49809;47.418;19.080;2023-03-04T02:46:40;100503.31;;;-2.73;100.00
63654;BME280;49809;47.418;19.080;2023-03-04T02:50:00;100499.91;;;-2.82;100.00
63654;BME280;49809;47.418;19.080;2023-03-04T02:53:47;100499.72;;;-2.88;100.00
63654;BME280;49809;47.418;19.080;2023-03-04T02:57:19;100500.19;;;-2.85;100.00
63654;BME280;49809;47.418;19.080;2023-03-04T03:00:43;100493.88;;;-2.90;100.00
63654;BME280;49809;47.418;19.080;2023-03-04T03:04:19;100490.66;;;-2.92;100.00
63654;BME280;49809;47.418;19.080;2023-03-04T03:08:07;100489.69;;;-2.91;100.00
63654;BME280;49809;47.418;19.080;2023-03-04T03:11:54;100490.94;;;-3.03;100.00
63654;BME280;49809;47.418;19.080;2023-03-04T03:19:31;100491.56;;;-3.10;100.00
63654;BME280;49809;47.418;19.080;2023-03-04T03:22:57;100488.03;;;-3.09;100.00
63654;BME280;49809;47.418;19.080;2023-03-04T03:26:34;100480.25;;;-3.17;100.00
63654;BME280;49809;47.418;19.080;2023-03-04T03:29:52;100475.38;;;-3.20;100.00
63654;BME280;49809;47.418;19.080;2023-03-04T03:33:18;100472.94;;;-3.21;100.00
63654;BME280;49809;47.418;19.080;2023-03-04T03:36:55;100464.37;;;-3.22;100.00
63654;BME280;49809;47.418;19.080;2023-03-04T03:40:31;100465.81;;;-3.19;100.00
63654;BME280;49809;47.418;19.080;2023-03-04T03:44:00;100464.34;;;-3.30;100.00
63654;BME280;49809;47.418;19.080;2023-03-04T03:47:31;100464.50;;;-3.31;100.00
63654;BME280;49809;47.418;19.080;2023-03-04T03:50:59;100459.47;;;-3.33;100.00
63654;BME280;49809;47.418;19.080;2023-03-04T03:54:47;100464.97;;;-3.44;100.00
63654;BME280;49809;47.418;19.080;2023-03-04T03:58:17;100456.69;;;-3.47;100.00
63654;BME280;49809;47.418;19.080;2023-03-04T04:01:37;100461.38;;;-3.51;100.00
63654;BME280;49809;47.418;19.080;2023-03-04T04:05:14;100463.00;;;-3.42;100.00
63654;BME280;49809;47.418;19.080;2023-03-04T04:09:00;100467.22;;;-3.41;100.00
63654;BME280;49809;47.418;19.080;2023-03-04T04:12:25;100465.09;;;-3.45;100.00
63654;BME280;49809;47.418;19.080;2023-03-04T04:15:59;100461.84;;;-3.56;100.00
63654;BME280;49809;47.418;19.080;2023-03-04T04:19:47;100460.34;;;-3.58;100.00
63654;BME280;49809;47.418;19.080;2023-03-04T04:23:06;100462.16;;;-3.59;100.00
63654;BME280;49809;47.418;19.080;2023-03-04T04:26:32;100453.25;;;-3.56;100.00
63654;BME280;49809;47.418;19.080;2023-03-04T04:30:01;100446.47;;;-3.57;100.00
63654;BME280;49809;47.418;19.080;2023-03-04T04:33:19;100445.69;;;-3.49;100.00
63654;BME280;49809;47.418;19.080;2023-03-04T04:36:36;100450.69;;;-3.48;100.00
63654;BME280;49809;47.418;19.080;2023-03-04T04:40:07;100454.56;;;-3.52;100.00
63654;BME280;49809;47.418;19.080;2023-03-04T04:43:43;100460.22;;;-3.48;100.00
63654;BME280;49809;47.418;19.080;2023-03-04T04:47:17;100457.50;;;-3.47;100.00
63654;BME280;49809;47.418;19.080;2023-03-04T04:50:44;100453.94;;;-3.54;100.00
63654;BME280;49809;47.418;19.080;2023-03-04T04:54:28;100456.47;;;-3.62;100.00
63654;BME280;49809;47.418;19.080;2023-03-04T04:57:45;100456.94;;;-3.67;100.00
63654;BME280;49809;47.418;19.080;2023-03-04T05:01:09;100455.62;;;-3.71;100.00
63654;BME280;49809;47.418;19.080;2023-03-04T05:04:36;100456.28;;;-3.69;100.00
63654;BME280;49809;47.418;19.080;2023-03-04T05:07:54;100455.81;;;-3.64;100.00
63654;BME280;49809;47.418;19.080;2023-03-04T05:11:11;100457.87;;;-3.76;100.00
63654;BME280;49809;47.418;19.080;2023-03-04T05:14:28;100455.28;;;-3.76;100.00
63654;BME280;49809;47.418;19.080;2023-03-04T05:17:49;100445.88;;;-3.77;100.00
63654;BME280;49809;47.418;19.080;2023-03-04T05:21:15;100457.66;;;-3.82;100.00
63654;BME280;49809;47.418;19.080;2023-03-04T05:24:43;100467.06;;;-3.81;100.00
63654;BME280;49809;47.418;19.080;2023-03-04T05:28:11;100469.34;;;-3.78;100.00
63654;BME280;49809;47.418;19.080;2023-03-04T05:31:29;100466.41;;;-3.83;100.00
63654;BME280;49809;47.418;19.080;2023-03-04T05:35:10;100470.94;;;-3.77;100.00
63654;BME280;49809;47.418;19.080;2023-03-04T05:38:40;100476.47;;;-3.72;100.00
63654;BME280;49809;47.418;19.080;2023-03-04T05:42:10;100476.31;;;-3.71;100.00
63654;BME280;49809;47.418;19.080;2023-03-04T05:45:55;100484.91;;;-3.62;100.00
63654;BME280;49809;47.418;19.080;2023-03-04T05:49:32;100488.19;;;-3.60;100.00
63654;BME280;49809;47.418;19.080;2023-03-04T05:52:59;100491.28;;;-3.48;100.00
63654;BME280;49809;47.418;19.080;2023-03-04T05:56:37;100485.53;;;-3.34;100.00
63654;BME280;49809;47.418;19.080;2023-03-04T05:59:54;100484.25;;;-3.30;100.00
63654;BME280;49809;47.418;19.080;2023-03-04T06:03:18;100495.50;;;-2.97;100.00
63654;BME280;49809;47.418;19.080;2023-03-04T06:06:55;100491.63;;;-2.93;100.00
63654;BME280;49809;47.418;19.080;2023-03-04T06:10:17;100499.91;;;-2.66;100.00
63654;BME280;49809;47.418;19.080;2023-03-04T06:13:55;100497.16;;;-2.40;100.00
63654;BME280;49809;47.418;19.080;2023-03-04T06:17:15;100499.41;;;-2.04;99.86
63654;BME280;49809;47.418;19.080;2023-03-04T06:20:38;100497.69;;;-1.73;98.77
63654;BME280;49809;47.418;19.080;2023-03-04T06:24:14;100499.91;;;-1.46;95.86
63654;BME280;49809;47.418;19.080;2023-03-04T06:27:50;100500.38;;;-1.11;94.45
63654;BME280;49809;47.418;19.080;2023-03-04T06:31:56;100501.06;;;-0.64;94.27
63654;BME280;49809;47.418;19.080;2023-03-04T06:35:40;100505.91;;;-0.01;93.58
63654;BME280;49809;47.418;19.080;2023-03-04T06:39:17;100512.00;;;0.51;88.06
63654;BME280;49809;47.418;19.080;2023-03-04T06:47:44;100506.88;;;1.71;83.17
63654;BME280;49809;47.418;19.080;2023-03-04T06:51:15;100509.41;;;2.48;79.56
63654;BME280;49809;47.418;19.080;2023-03-04T06:54:51;100503.62;;;3.14;78.20
63654;BME280;49809;47.418;19.080;2023-03-04T07:02:21;100498.81;;;4.29;73.08
63654;BME280;49809;47.418;19.080;2023-03-04T07:06:20;100503.06;;;4.81;69.49
63654;BME280;49809;47.418;19.080;2023-03-04T07:10:08;100504.44;;;5.28;69.35
63654;BME280;49809;47.418;19.080;2023-03-04T07:13:44;100501.00;;;4.90;68.60
63654;BME280;49809;47.418;19.080;2023-03-04T07:17:48;100491.19;;;5.73;67.27
63654;BME280;49809;47.418;19.080;2023-03-04T07:25:18;100491.34;;;6.45;64.43
63654;BME280;49809;47.418;19.080;2023-03-04T07:28:43;100486.66;;;6.66;62.66
63654;BME280;49809;47.418;19.080;2023-03-04T07:36:20;100487.13;;;7.22;60.97
63654;BME280;49809;47.418;19.080;2023-03-04T07:39:24;100486.88;;;7.54;60.01
63654;BME280;49809;47.418;19.080;2023-03-04T07:42:52;100481.94;;;7.57;58.87
63654;BME280;49809;47.418;19.080;2023-03-04T07:46:17;100486.75;;;7.60;58.03
63654;BME280;49809;47.418;19.080;2023-03-04T07:49:53;100477.03;;;7.61;58.03
63654;BME280;49809;47.418;19.080;2023-03-04T07:53:18;100469.91;;;7.61;56.54
63654;BME280;49809;47.418;19.080;2023-03-04T07:56:24;100479.66;;;7.61;57.41
63654;BME280;49809;47.418;19.080;2023-03-04T07:59:31;100484.66;;;7.39;57.78
63654;BME280;49809;47.418;19.080;2023-03-04T08:03:08;100483.03;;;5.87;62.80
63654;BME280;49809;47.418;19.080;2023-03-04T08:10:57;100476.41;;;6.03;62.83
63654;BME280;49809;47.418;19.080;2023-03-04T08:14:20;100479.06;;;6.21;59.77
63654;BME280;49809;47.418;19.080;2023-03-04T08:17:31;100478.72;;;6.18;59.56
63654;BME280;49809;47.418;19.080;2023-03-04T08:20:54;100487.09;;;6.26;58.73
63654;BME280;49809;47.418;19.080;2023-03-04T08:24:38;100473.53;;;6.47;58.44
63654;BME280;49809;47.418;19.080;2023-03-04T08:28:06;100484.19;;;6.34;58.16
63654;BME280;49809;47.418;19.080;2023-03-04T08:31:40;100475.84;;;6.55;55.81
63654;BME280;49809;47.418;19.080;2023-03-04T08:35:26;100467.81;;;6.69;55.16
63654;BME280;49809;47.418;19.080;2023-03-04T08:38:29;100464.28;;;6.75;53.96
63654;BME280;49809;47.418;19.080;2023-03-04T08:42:06;100464.84;;;6.95;53.64
63654;BME280;49809;47.418;19.080;2023-03-04T08:45:42;100461.22;;;7.08;53.17
63654;BME280;49809;47.418;19.080;2023-03-04T08:49:03;100458.03;;;7.17;53.17
63654;BME280;49809;47.418;19.080;2023-03-04T08:52:07;100453.81;;;7.16;52.81
63654;BME280;49809;47.418;19.080;2023-03-04T08:55:13;100456.12;;;7.24;52.87
63654;BME280;49809;47.418;19.080;2023-03-04T08:58:17;100448.47;;;7.34;53.18
63654;BME280;49809;47.418;19.080;2023-03-04T09:01:22;100454.22;;;7.43;53.13
63654;BME280;49809;47.418;19.080;2023-03-04T09:04:28;100453.50;;;7.36;52.89
63654;BME280;49809;47.418;19.080;2023-03-04T09:07:32;100448.03;;;7.49;52.34
63654;BME280;49809;47.418;19.080;2023-03-04T09:10:40;100453.78;;;7.58;51.90
63654;BME280;49809;47.418;19.080;2023-03-04T09:13:43;100443.25;;;7.81;51.38
63654;BME280;49809;47.418;19.080;2023-03-04T09:17:06;100441.19;;;7.83;50.80
63654;BME280;49809;47.418;19.080;2023-03-04T09:20:11;100434.50;;;8.27;50.14
63654;BME280;49809;47.418;19.080;2023-03-04T09:23:43;100439.25;;;8.65;48.87
63654;BME280;49809;47.418;19.080;2023-03-04T09:26:51;100429.28;;;9.12;47.39
63654;BME280;49809;47.418;19.080;2023-03-04T09:30:07;100432.50;;;9.31;47.13
63654;BME280;49809;47.418;19.080;2023-03-04T09:33:14;100427.69;;;9.78;45.45
63654;BME280;49809;47.418;19.080;2023-03-04T09:36:51;100422.72;;;9.81;44.97
63654;BME280;49809;47.418;19.080;2023-03-04T09:39:56;100418.38;;;10.30;44.82
63654;BME280;49809;47.418;19.080;2023-03-04T09:43:11;100417.19;;;10.65;44.73
63654;BME280;49809;47.418;19.080;2023-03-04T09:46:42;100411.13;;;11.28;43.25
63654;BME280;49809;47.418;19.080;2023-03-04T09:50:09;100418.47;;;11.16;42.73
63654;BME280;49809;47.418;19.080;2023-03-04T09:53:33;100418.28;;;11.59;42.48
63654;BME280;49809;47.418;19.080;2023-03-04T09:56:41;100413.16;;;11.48;41.84
63654;BME280;49809;47.418;19.080;2023-03-04T10:03:57;100399.34;;;10.55;44.30
63654;BME280;49809;47.418;19.080;2023-03-04T10:07:22;100397.59;;;10.66;43.80
63654;BME280;49809;47.418;19.080;2023-03-04T10:10:34;100408.38;;;10.37;44.44
63654;BME280;49809;47.418;19.080;2023-03-04T10:13:47;100405.59;;;10.06;44.99
63654;BME280;49809;47.418;19.080;2023-03-04T10:21:35;100395.63;;;9.91;46.71
63654;BME280;49809;47.418;19.080;2023-03-04T10:28:27;100395.03;;;9.50;47.83
63654;BME280;49809;47.418;19.080;2023-03-04T10:34:36;100381.50;;;9.30;48.25
63654;BME280;49809;47.418;19.080;2023-03-04T10:37:49;100380.38;;;9.43;48.09
63654;BME280;49809;47.418;19.080;2023-03-04T10:41:21;100379.87;;;9.63;47.54
63654;BME280;49809;47.418;19.080;2023-03-04T10:44:51;100378.12;;;9.90;46.84
63654;BME280;49809;47.418;19.080;2023-03-04T10:47:59;100374.03;;;9.77;46.46
63654;BME280;49809;47.418;19.080;2023-03-04T10:51:22;100382.03;;;10.04;44.60
63654;BME280;49809;47.418;19.080;2023-03-04T10:58:15;100351.03;;;10.43;43.61
63654;BME280;49809;47.418;19.080;2023-03-04T11:01:41;100353.38;;;10.18;43.54
63654;BME280;49809;47.418;19.080;2023-03-04T11:08:29;100335.69;;;10.72;40.94
63654;BME280;49809;47.418;19.080;2023-03-04T11:11:41;100343.53;;;10.35;41.47
63654;BME280;49809;47.418;19.080;2023-03-04T11:15:29;100338.47;;;10.55;38.38
63654;BME280;49809;47.418;19.080;2023-03-04T11:18:58;100337.22;;;10.95;38.91
63654;BME280;49809;47.418;19.080;2023-03-04T11:22:05;100324.66;;;10.80;39.02
63654;BME280;49809;47.418;19.080;2023-03-04T11:25:26;100329.31;;;10.68;38.69
63654;BME280;49809;47.418;19.080;2023-03-04T11:32:17;100317.59;;;12.37;37.25
63654;BME280;49809;47.418;19.080;2023-03-04T11:43:05;100308.25;;;11.57;36.80
63654;BME280;49809;47.418;19.080;2023-03-04T12:01:09;100275.38;;;12.25;36.59
63654;BME280;49809;47.418;19.080;2023-03-04T12:08:23;100261.72;;;11.34;38.32
63654;BME280;49809;47.418;19.080;2023-03-04T12:15:25;100253.87;;;11.49;39.04
63654;BME280;49809;47.418;19.080;2023-03-04T12:21:58;100253.41;;;11.15;40.03
63654;BME280;49809;47.418;19.080;2023-03-04T12:39:38;100238.47;;;11.46;40.59
63654;BME280;49809;47.418;19.080;2023-03-04T12:46:43;100235.69;;;11.73;40.63
63654;BME280;49809;47.418;19.080;2023-03-04T12:50:21;100223.28;;;11.84;39.89
63654;BME280;49809;47.418;19.080;2023-03-04T12:57:25;100220.19;;;11.50;39.95
63654;BME280;49809;47.418;19.080;2023-03-04T13:01:30;100213.72;;;11.88;40.23
63654;BME280;49809;47.418;19.080;2023-03-04T13:04:52;100208.81;;;11.54;40.26
63654;BME280;49809;47.418;19.080;2023-03-04T13:08:41;100198.59;;;11.78;40.67
63654;BME280;49809;47.418;19.080;2023-03-04T13:11:51;100197.53;;;11.79;40.59
63654;BME280;49809;47.418;19.080;2023-03-04T13:19:01;100190.94;;;12.07;40.40
63654;BME280;49809;47.418;19.080;2023-03-04T13:26:30;100174.22;;;12.06;40.36
63654;BME280;49809;47.418;19.080;2023-03-04T13:30:01;100172.25;;;11.51;41.70
63654;BME280;49809;47.418;19.080;2023-03-04T13:36:54;100164.97;;;12.24;40.92
63654;BME280;49809;47.418;19.080;2023-03-04T13:43:40;100143.66;;;11.68;39.81
63654;BME280;49809;47.418;19.080;2023-03-04T13:47:20;100144.69;;;11.67;40.14
63654;BME280;49809;47.418;19.080;2023-03-04T13:50:50;100132.59;;;12.22;38.97
63654;BME280;49809;47.418;19.080;2023-03-04T13:57:49;100119.31;;;12.17;38.60
63654;BME280;49809;47.418;19.080;2023-03-04T14:00:54;100107.41;;;12.25;34.65
63654;BME280;49809;47.418;19.080;2023-03-04T14:04:00;100103.66;;;12.46;34.24
63654;BME280;49809;47.418;19.080;2023-03-04T14:10:22;100090.63;;;12.54;34.29
63654;BME280;49809;47.418;19.080;2023-03-04T14:13:26;100098.59;;;12.39;33.76
63654;BME280;49809;47.418;19.080;2023-03-04T14:24:24;100091.97;;;12.42;34.08
63654;BME280;49809;47.418;19.080;2023-03-04T14:27:47;100088.28;;;12.33;33.59
63654;BME280;49809;47.418;19.080;2023-03-04T14:31:17;100083.91;;;12.82;33.51
63654;BME280;49809;47.418;19.080;2023-03-04T14:34:31;100081.03;;;12.63;32.91
63654;BME280;49809;47.418;19.080;2023-03-04T14:51:39;100086.19;;;12.14;33.37
63654;BME280;49809;47.418;19.080;2023-03-04T14:58:35;100073.91;;;11.63;33.80
63654;BME280;49809;47.418;19.080;2023-03-04T15:02:22;100075.72;;;11.37;34.25
63654;BME280;49809;47.418;19.080;2023-03-04T15:05:32;100072.38;;;10.95;35.50
63654;BME280;49809;47.418;19.080;2023-03-04T15:08:43;100064.44;;;10.95;35.13
63654;BME280;49809;47.418;19.080;2023-03-04T15:12:11;100069.66;;;10.74;35.79
63654;BME280;49809;47.418;19.080;2023-03-04T15:15:42;100067.44;;;10.56;36.01
63654;BME280;49809;47.418;19.080;2023-03-04T15:19:27;100068.50;;;10.55;36.24
63654;BME280;49809;47.418;19.080;2023-03-04T15:26:25;100078.78;;;10.52;36.63
63654;BME280;49809;47.418;19.080;2023-03-04T15:29:53;100082.47;;;10.51;36.92
63654;BME280;49809;47.418;19.080;2023-03-04T15:33:26;100078.50;;;10.48;37.63
63654;BME280;49809;47.418;19.080;2023-03-04T15:36:29;100080.41;;;10.16;38.77
63654;BME280;49809;47.418;19.080;2023-03-04T15:39:57;100076.91;;;10.10;38.80
63654;BME280;49809;47.418;19.080;2023-03-04T15:43:03;100079.00;;;10.08;38.87
63654;BME280;49809;47.418;19.080;2023-03-04T15:46:11;100076.78;;;9.95;39.34
63654;BME280;49809;47.418;19.080;2023-03-04T15:49:34;100075.94;;;9.89;39.01
63654;BME280;49809;47.418;19.080;2023-03-04T15:57:20;100077.16;;;9.50;40.07
63654;BME280;49809;47.418;19.080;2023-03-04T16:00:28;100079.84;;;9.28;40.96
63654;BME280;49809;47.418;19.080;2023-03-04T16:03:53;100084.75;;;8.98;41.60
63654;BME280;49809;47.418;19.080;2023-03-04T16:06:58;100073.28;;;8.87;42.39
63654;BME280;49809;47.418;19.080;2023-03-04T16:10:35;100088.84;;;8.67;43.17
63654;BME280;49809;47.418;19.080;2023-03-04T16:13:58;100084.50;;;8.56;43.82
63654;BME280;49809;47.418;19.080;2023-03-04T16:17:01;100084.59;;;8.27;44.77
63654;BME280;49809;47.418;19.080;2023-03-04T16:20:05;100091.28;;;8.18;44.56
63654;BME280;49809;47.418;19.080;2023-03-04T16:23:13;100094.31;;;8.10;44.48
63654;BME280;49809;47.418;19.080;2023-03-04T16:26:27;100094.47;;;8.04;44.20
63654;BME280;49809;47.418;19.080;2023-03-04T16:29:36;100106.22;;;7.96;44.84
63654;BME280;49809;47.418;19.080;2023-03-04T16:32:42;100101.16;;;7.78;45.68
63654;BME280;49809;47.418;19.080;2023-03-04T16:35:46;100101.13;;;7.61;46.04
63654;BME280;49809;47.418;19.080;2023-03-04T16:38:56;100108.03;;;7.51;46.07
63654;BME280;49809;47.418;19.080;2023-03-04T16:42:04;100098.78;;;7.48;46.09
63654;BME280;49809;47.418;19.080;2023-03-04T16:45:33;100105.78;;;7.42;46.30
63654;BME280;49809;47.418;19.080;2023-03-04T16:48:42;100099.19;;;7.28;47.11
63654;BME280;49809;47.418;19.080;2023-03-04T16:51:51;100107.69;;;7.30;46.14
63654;BME280;49809;47.418;19.080;2023-03-04T16:54:55;100108.13;;;7.27;45.83
63654;BME280;49809;47.418;19.080;2023-03-04T16:57:59;100102.22;;;7.09;46.69
63654;BME280;49809;47.418;19.080;2023-03-04T17:01:25;100102.06;;;6.87;47.75
63654;BME280;49809;47.418;19.080;2023-03-04T17:04:31;100108.47;;;6.56;49.12
63654;BME280;49809;47.418;19.080;2023-03-04T17:07:36;100122.09;;;6.41;50.19
63654;BME280;49809;47.418;19.080;2023-03-04T17:15:27;100119.19;;;6.20;50.39
63654;BME280;49809;47.418;19.080;2023-03-04T17:18:31;100123.56;;;6.14;50.33
63654;BME280;49809;47.418;19.080;2023-03-04T17:22:00;100114.41;;;6.05;49.79
63654;BME280;49809;47.418;19.080;2023-03-04T17:25:04;100118.34;;;5.96;50.63
63654;BME280;49809;47.418;19.080;2023-03-04T17:32:04;100132.19;;;5.61;51.97
63654;BME280;49809;47.418;19.080;2023-03-04T17:35:10;100122.47;;;5.32;52.65
63654;BME280;49809;47.418;19.080;2023-03-04T17:38:15;100131.94;;;5.15;54.18
63654;BME280;49809;47.418;19.080;2023-03-04T17:41:21;100133.00;;;5.74;50.59
63654;BME280;49809;47.418;19.080;2023-03-04T17:44:28;100128.56;;;5.74;50.62
63654;BME280;49809;47.418;19.080;2023-03-04T17:47:34;100134.47;;;5.69;50.86
63654;BME280;49809;47.418;19.080;2023-03-04T17:51:12;100139.13;;;5.56;50.98
63654;BME280;49809;47.418;19.080;2023-03-04T17:54:16;100139.63;;;5.46;51.97
63654;BME280;49809;47.418;19.080;2023-03-04T17:57:21;100151.16;;;5.45;52.05
63654;BME280;49809;47.418;19.080;2023-03-04T18:00:25;100150.88;;;5.35;52.44
63654;BME280;49809;47.418;19.080;2023-03-04T18:03:29;100145.69;;;5.47;51.88
63654;BME280;49809;47.418;19.080;2023-03-04T18:06:35;100150.28;;;5.33;52.57
63654;BME280;49809;47.418;19.080;2023-03-04T18:10:00;100149.78;;;5.24;53.04
63654;BME280;49809;47.418;19.080;2023-03-04T18:13:27;100147.66;;;5.51;51.79
63654;BME280;49809;47.418;19.080;2023-03-04T18:17:01;100155.06;;;5.54;52.18
63654;BME280;49809;47.418;19.080;2023-03-04T18:20:04;100153.56;;;5.47;52.45
63654;BME280;49809;47.418;19.080;2023-03-04T18:23:40;100151.84;;;5.52;52.38
63654;BME280;49809;47.418;19.080;2023-03-04T18:26:53;100141.66;;;5.44;52.93
63654;BME280;49809;47.418;19.080;2023-03-04T18:30:34;100154.81;;;5.44;53.35
63654;BME280;49809;47.418;19.080;2023-03-04T18:42:14;100166.41;;;5.18;55.44
63654;BME280;49809;47.418;19.080;2023-03-04T18:53:35;100184.31;;;4.85;59.20
63654;BME280;49809;47.418;19.080;2023-03-04T18:57:13;100194.13;;;4.71;59.82
63654;BME280;49809;47.418;19.080;2023-03-04T19:00:58;100196.69;;;4.53;60.81
63654;BME280;49809;47.418;19.080;2023-03-04T19:04:36;100206.84;;;4.43;61.21
63654;BME280;49809;47.418;19.080;2023-03-04T19:07:43;100214.81;;;4.30;62.24
63654;BME280;49809;47.418;19.080;2023-03-04T19:10:46;100221.97;;;4.16;63.02
63654;BME280;49809;47.418;19.080;2023-03-04T19:13:58;100224.88;;;4.02;63.96
63654;BME280;49809;47.418;19.080;2023-03-04T19:17:27;100208.44;;;3.81;65.03
63654;BME280;49809;47.418;19.080;2023-03-04T19:20:54;100216.94;;;3.77;65.66
63654;BME280;49809;47.418;19.080;2023-03-04T19:23:59;100224.63;;;3.72;66.22
63654;BME280;49809;47.418;19.080;2023-03-04T19:32:01;100211.41;;;3.47;67.88
63654;BME280;49809;47.418;19.080;2023-03-04T19:35:47;100221.50;;;3.37;68.66
63654;BME280;49809;47.418;19.080;2023-03-04T19:39:10;100217.09;;;3.37;69.03
63654;BME280;49809;47.418;19.080;2023-03-04T19:42:34;100223.94;;;3.32;69.70
63654;BME280;49809;47.418;19.080;2023-03-04T19:45:57;100222.38;;;3.18;70.59
63654;BME280;49809;47.418;19.080;2023-03-04T19:50:03;100219.94;;;3.16;70.76
63654;BME280;49809;47.418;19.080;2023-03-04T19:53:48;100212.31;;;3.15;70.93
63654;BME280;49809;47.418;19.080;2023-03-04T20:10:04;100217.56;;;3.01;72.00
63654;BME280;49809;47.418;19.080;2023-03-04T20:13:47;100228.44;;;2.98;72.07
63654;BME280;49809;47.418;19.080;2023-03-04T20:17:10;100235.47;;;3.04;71.68
63654;BME280;49809;47.418;19.080;2023-03-04T20:20:55;100232.06;;;2.97;71.66
63654;BME280;49809;47.418;19.080;2023-03-04T20:24:34;100234.06;;;2.95;71.80
63654;BME280;49809;47.418;19.080;2023-03-04T20:28:55;100224.44;;;2.89;72.30
63654;BME280;49809;47.418;19.080;2023-03-04T20:36:44;100244.94;;;2.79;72.76
63654;BME280;49809;47.418;19.080;2023-03-04T20:39:47;100237.47;;;2.76;72.86
63654;BME280;49809;47.418;19.080;2023-03-04T20:47:17;100245.94;;;2.72;73.15
63654;BME280;49809;47.418;19.080;2023-03-04T20:50:21;100234.66;;;2.71;73.22
63654;BME280;49809;47.418;19.080;2023-03-04T20:53:44;100228.06;;;2.69;73.42
63654;BME280;49809;47.418;19.080;2023-03-04T20:57:16;100223.63;;;2.69;73.33
63654;BME280;49809;47.418;19.080;2023-03-04T21:00:42;100226.25;;;2.69;73.17
63654;BME280;49809;47.418;19.080;2023-03-04T21:04:48;100223.03;;;2.74;73.08
63654;BME280;49809;47.418;19.080;2023-03-04T21:07:52;100232.88;;;2.58;73.74
63654;BME280;49809;47.418;19.080;2023-03-04T21:11:29;100238.13;;;2.65;73.40
63654;BME280;49809;47.418;19.080;2023-03-04T21:15:14;100235.69;;;2.63;73.52
63654;BME280;49809;47.418;19.080;2023-03-04T21:18:40;100244.75;;;2.61;73.64
63654;BME280;49809;47.418;19.080;2023-03-04T21:22:18;100247.75;;;2.58;73.83
63654;BME280;49809;47.418;19.080;2023-03-04T21:25:21;100234.88;;;2.50;74.33